Harmony, Illinois
Current Conditions -  °F | °C
As of 5:55 PM on Wednesday 28 Jan 2015 (Local Time) from KMQB Reporting Station
Clear Clear  
Wind Chill: 29°   Ceiling: Unl
Heat Index: 38°   Visibility: 10mi
Dew Point: 33°   Wind: 16mph
Humidity: 81%   Direction: 140°SE
Pressure: 29.86"   Gusts: NA
Location:  40.4155°N, 91.0269°W
Report Text: KMQB 282355Z AUTO 14014KT 10SM CLR 03/00 A2986 RMK AO2 T00320003 10056 20027
Loading
Personal Weather Stations






























Interactive Weather Map New forecast layout! Learn more

10-Day Weather Forecast

Advertisements
Track Severe Weather on mobile